createdAt,value
2023-11-01T00:00:59.817Z,77.91
2023-11-01T00:04:03.808Z,78.27
2023-11-01T00:07:07.744Z,78.17
2023-11-01T00:10:11.448Z,78.43
2023-11-01T00:13:16.441Z,78.21
2023-11-01T00:16:20.061Z,78.47
2023-11-01T00:19:24.828Z,78.44
2023-11-01T00:22:28.269Z,79.13
2023-11-01T00:25:31.701Z,78.60
2023-11-01T00:28:37.012Z,78.67
2023-11-01T00:31:41.096Z,79.12
2023-11-01T00:34:44.674Z,79.37
2023-11-01T00:37:48.491Z,79.21
2023-11-01T00:40:52.201Z,79.81
2023-11-01T00:43:56.918Z,79.64
2023-11-01T00:47:00.312Z,79.40
2023-11-01T00:50:07.113Z,79.31
2023-11-01T00:53:10.565Z,79.52
2023-11-01T00:56:14.040Z,79.78
2023-11-01T00:59:18.858Z,79.47
2023-11-01T01:02:22.315Z,79.69
2023-11-01T01:05:26.179Z,79.57
2023-11-01T01:08:30.800Z,79.39
2023-11-01T01:11:34.607Z,79.68
2023-11-01T01:14:39.519Z,79.25
2023-11-01T01:17:43.040Z,79.77
2023-11-01T01:20:46.431Z,79.75
2023-11-01T01:23:49.790Z,79.07
2023-11-01T01:26:53.178Z,80.26
2023-11-01T01:29:57.862Z,79.64
2023-11-01T01:33:01.307Z,79.43
2023-11-01T01:49:51.087Z,80.00
2023-11-01T01:52:54.608Z,80.06
2023-11-01T01:55:58.691Z,79.63
2023-11-01T01:59:02.157Z,79.52
2023-11-01T02:02:06.525Z,79.42
2023-11-01T02:05:11.889Z,79.60
2023-11-01T02:08:15.455Z,78.87
2023-11-01T02:11:18.964Z,79.13
2023-11-01T02:14:22.878Z,79.32
2023-11-01T02:17:26.400Z,79.64
2023-11-01T02:20:35.674Z,79.36
2023-11-01T02:23:42.809Z,79.59
2023-11-01T02:26:46.307Z,79.39
2023-11-01T02:29:50.566Z,79.33
2023-11-01T02:32:54.370Z,79.49
2023-11-01T02:35:57.828Z,79.77
2023-11-01T02:39:02.759Z,79.76
2023-11-01T02:42:06.237Z,78.93
2023-11-01T02:45:10.923Z,78.96
2023-11-01T02:48:14.272Z,78.83
2023-11-01T02:51:18.435Z,78.63
2023-11-01T02:54:23.256Z,78.52
2023-11-01T02:57:26.932Z,79.10
2023-11-01T03:00:30.478Z,78.86
2023-11-01T03:03:34.181Z,78.55
2023-11-01T03:06:37.643Z,78.16
2023-11-01T03:09:42.412Z,78.31
2023-11-01T03:12:47.223Z,78.93
2023-11-01T03:15:50.563Z,78.54
2023-11-01T03:18:53.831Z,78.62
2023-11-01T03:21:57.619Z,78.92
2023-11-01T03:25:02.631Z,78.40
2023-11-01T03:28:08.066Z,78.70
2023-11-01T03:31:12.215Z,78.41
2023-11-01T03:34:16.129Z,78.78
2023-11-01T03:37:19.860Z,78.54
2023-11-01T03:40:24.571Z,78.60
2023-11-01T03:43:27.945Z,78.57
2023-11-01T03:46:31.918Z,79.00
2023-11-01T03:49:35.334Z,78.98
2023-11-01T03:52:38.682Z,79.26
2023-11-01T03:55:43.825Z,78.95
2023-11-01T03:58:47.248Z,78.68
2023-11-01T04:01:50.753Z,78.93
2023-11-01T04:04:55.310Z,78.92
2023-11-01T04:07:58.733Z,79.17
2023-11-01T04:11:04.114Z,79.31
2023-11-01T04:14:08.947Z,79.18
2023-11-01T04:17:12.253Z,79.12
2023-11-01T04:20:16.046Z,78.32
2023-11-01T04:23:20.835Z,78.28
2023-11-01T04:26:25.940Z,78.05
2023-11-01T04:29:29.336Z,78.76
2023-11-01T04:32:32.873Z,78.39
2023-11-01T04:35:37.202Z,78.78
2023-11-01T04:38:41.000Z,78.98
2023-11-01T04:41:46.097Z,78.64
2023-11-01T04:44:49.561Z,78.56
2023-11-01T04:47:53.367Z,78.66
2023-11-01T04:50:57.547Z,78.66
2023-11-01T04:54:01.291Z,78.62
2023-11-01T04:57:06.606Z,78.33
2023-11-01T05:00:12.811Z,78.68
2023-11-01T05:03:16.374Z,78.94
2023-11-01T05:06:19.867Z,79.20
2023-11-01T05:09:24.311Z,79.04
2023-11-01T05:12:29.489Z,79.12
2023-11-01T05:15:32.930Z,79.06
2023-11-01T05:18:36.305Z,79.33
2023-11-01T05:21:40.337Z,79.39
2023-11-01T05:24:47.834Z,78.61
2023-11-01T05:27:52.712Z,79.21
2023-11-01T05:30:56.138Z,78.95
2023-11-01T05:33:59.633Z,79.02
2023-11-01T05:37:04.756Z,79.54
2023-11-01T05:40:14.526Z,80.02
2023-11-01T05:43:19.890Z,80.27
2023-11-01T05:46:23.804Z,80.61
2023-11-01T05:49:27.300Z,80.31
2023-11-01T05:52:30.644Z,79.86
2023-11-01T05:55:48.339Z,80.53
2023-11-01T05:59:00.002Z,81.42
2023-11-01T06:02:04.647Z,81.55
2023-11-01T06:05:08.760Z,81.26
2023-11-01T06:08:12.219Z,81.28
2023-11-01T06:11:15.541Z,80.84
2023-11-01T06:14:22.008Z,80.86
2023-11-01T06:17:25.445Z,80.79
2023-11-01T06:20:29.089Z,80.45
2023-11-01T06:23:32.772Z,80.28
2023-11-01T06:26:37.068Z,80.02
2023-11-01T06:29:43.595Z,79.54
2023-11-01T06:32:47.446Z,79.86
2023-11-01T06:35:51.053Z,79.71
2023-11-01T06:38:54.387Z,79.50
2023-11-01T06:41:57.839Z,78.64
2023-11-01T06:45:02.550Z,79.15
2023-11-01T06:48:06.399Z,78.98
2023-11-01T06:51:11.557Z,79.49
2023-11-01T06:54:15.756Z,79.18
2023-11-01T06:57:19.248Z,78.86
2023-11-01T07:00:25.326Z,79.18
2023-11-01T07:03:29.047Z,78.32
2023-11-01T07:06:32.537Z,78.35
2023-11-01T07:09:36.934Z,78.46
2023-11-01T07:12:40.487Z,77.57
2023-11-01T07:15:46.068Z,78.03
2023-11-01T07:18:49.423Z,77.56
2023-11-01T07:21:52.984Z,77.62
2023-11-01T07:24:56.951Z,77.94
2023-11-01T07:28:00.400Z,77.55
2023-11-01T07:31:05.367Z,77.94
2023-11-01T07:34:08.802Z,77.79
2023-11-01T07:37:12.321Z,77.29
2023-11-01T07:40:15.678Z,77.16
2023-11-01T07:43:19.023Z,77.73
2023-11-01T07:46:23.714Z,77.69
2023-11-01T07:49:26.993Z,77.45
2023-11-01T07:52:30.413Z,77.82
2023-11-01T07:55:33.747Z,78.78
2023-11-01T07:58:37.045Z,79.13
2023-11-01T08:01:42.402Z,78.48
2023-11-01T08:04:46.495Z,78.84
2023-11-01T08:07:50.041Z,78.97
2023-11-01T08:10:53.367Z,79.01
2023-11-01T08:13:57.812Z,79.84
2023-11-01T08:17:02.748Z,80.27
2023-11-01T08:20:08.072Z,80.97
2023-11-01T08:23:12.558Z,80.31
2023-11-01T08:26:20.496Z,80.35
2023-11-01T08:29:24.160Z,80.11
2023-11-01T08:32:29.020Z,79.68
2023-11-01T08:35:32.960Z,79.74
2023-11-01T08:38:36.347Z,80.05
2023-11-01T08:41:51.919Z,79.93
2023-11-01T08:44:57.647Z,80.31
2023-11-01T08:48:02.724Z,79.91
2023-11-01T08:51:09.348Z,79.82
2023-11-01T08:54:12.943Z,79.01
2023-11-01T08:57:16.412Z,78.10
2023-11-01T09:00:21.646Z,78.09
2023-11-01T09:03:30.798Z,77.23
2023-11-01T09:06:35.495Z,76.73
2023-11-01T09:09:39.914Z,76.89
2023-11-01T09:12:43.304Z,75.54
2023-11-01T09:15:47.567Z,75.28
2023-11-01T09:18:53.408Z,74.65
2023-11-01T09:21:56.888Z,74.36
2023-11-01T09:25:00.287Z,74.63
2023-11-01T09:28:03.703Z,73.20
2023-11-01T09:31:07.394Z,73.35
2023-11-01T09:34:12.354Z,72.92
2023-11-01T09:37:15.781Z,73.46
2023-11-01T09:40:20.371Z,73.57
2023-11-01T09:43:23.919Z,72.36
2023-11-01T09:46:27.893Z,73.14
2023-11-01T09:49:33.732Z,72.92
2023-11-01T09:52:37.680Z,72.71
2023-11-01T09:55:41.461Z,72.63
2023-11-01T09:58:45.257Z,73.10
2023-11-01T10:01:48.763Z,72.66
2023-11-01T10:04:53.522Z,73.07
2023-11-01T10:07:57.744Z,72.82
2023-11-01T10:11:03.619Z,72.26
2023-11-01T10:14:07.205Z,72.74
2023-11-01T10:17:10.679Z,71.88
2023-11-01T10:20:25.100Z,72.09
2023-11-01T10:23:29.251Z,71.12
2023-11-01T10:26:32.838Z,71.38
2023-11-01T10:29:44.938Z,70.71
2023-11-01T10:33:06.415Z,69.74
2023-11-01T10:36:11.958Z,70.60
2023-11-01T10:39:15.472Z,68.50
2023-11-01T10:42:20.168Z,69.64
2023-11-01T10:45:23.734Z,68.71
2023-11-01T10:48:27.812Z,67.57
2023-11-01T10:51:32.858Z,68.32
2023-11-01T10:54:37.744Z,67.96
2023-11-01T10:57:42.691Z,68.28
2023-11-01T11:00:52.010Z,67.96
2023-11-01T11:04:02.131Z,67.96
2023-11-01T11:07:27.527Z,65.93
2023-11-01T11:10:33.789Z,67.11
2023-11-01T11:13:41.679Z,67.17
2023-11-01T11:17:08.368Z,67.32
2023-11-01T11:20:13.126Z,68.15
2023-11-01T11:23:19.188Z,67.31
2023-11-01T11:26:40.517Z,68.36
2023-11-01T11:29:53.514Z,66.36
2023-11-01T11:33:08.305Z,63.97
2023-11-01T11:36:14.199Z,63.60
2023-11-01T11:39:18.975Z,63.20
2023-11-01T11:42:52.497Z,62.34
2023-11-01T11:46:36.180Z,60.46
2023-11-01T11:49:40.179Z,59.99
2023-11-01T11:52:46.450Z,60.23
2023-11-01T11:55:51.241Z,61.88
2023-11-01T11:58:54.730Z,62.15
2023-11-01T12:02:07.422Z,63.07
2023-11-01T12:05:10.956Z,63.06
2023-11-01T12:08:14.427Z,63.42
2023-11-01T12:11:19.815Z,63.52
2023-11-01T12:14:24.744Z,62.94
2023-11-01T12:17:28.414Z,60.22
2023-11-01T12:20:33.041Z,58.95
2023-11-01T12:23:38.092Z,58.41
2023-11-01T12:27:02.780Z,57.48
2023-11-01T12:30:07.445Z,57.10
2023-11-01T12:33:20.765Z,58.35
2023-11-01T12:36:30.521Z,57.96
2023-11-01T12:39:36.414Z,57.59
2023-11-01T12:42:42.593Z,56.27
2023-11-01T12:45:46.368Z,57.84
2023-11-01T12:48:50.584Z,57.84
2023-11-01T12:51:54.130Z,58.88
2023-11-01T12:54:57.562Z,59.77
2023-11-01T12:58:08.800Z,60.08
2023-11-01T13:01:12.780Z,59.95
2023-11-01T13:04:16.219Z,59.48
2023-11-01T13:07:19.958Z,58.20
2023-11-01T13:10:23.525Z,59.85
2023-11-01T13:13:28.345Z,60.65
2023-11-01T13:16:31.727Z,60.84
2023-11-01T13:19:35.108Z,58.99
2023-11-01T13:22:38.586Z,58.70
2023-11-01T13:25:42.779Z,57.08
2023-11-01T13:28:48.783Z,56.87
2023-11-01T13:31:54.458Z,57.53
2023-11-01T13:34:58.629Z,56.83
2023-11-01T13:38:02.013Z,56.80
2023-11-01T13:41:06.149Z,56.27
2023-11-01T13:44:11.311Z,56.45
2023-11-01T13:47:14.885Z,56.61
2023-11-01T13:50:18.624Z,57.72
2023-11-01T13:53:24.387Z,57.04
2023-11-01T13:56:28.428Z,57.24
2023-11-01T13:59:33.364Z,58.11
2023-11-01T14:02:36.872Z,56.76
2023-11-01T14:05:41.923Z,56.87
2023-11-01T14:08:45.345Z,57.34
2023-11-01T14:11:52.905Z,57.88
2023-11-01T14:14:58.222Z,57.71
2023-11-01T14:18:05.303Z,57.78
2023-11-01T14:21:09.352Z,58.44
2023-11-01T14:24:14.738Z,58.59
2023-11-01T14:27:19.032Z,58.24
2023-11-01T14:30:24.625Z,57.95
2023-11-01T14:33:28.195Z,58.60
2023-11-01T14:36:31.859Z,59.51
2023-11-01T14:39:35.185Z,59.72
2023-11-01T14:42:39.289Z,60.26
2023-11-01T14:45:46.508Z,60.52
2023-11-01T14:48:50.916Z,60.78
2023-11-01T14:51:54.390Z,61.62
2023-11-01T14:54:58.243Z,62.24
2023-11-01T14:58:01.981Z,63.25
2023-11-01T15:01:12.115Z,62.36
2023-11-01T15:04:15.614Z,63.02
2023-11-01T15:07:19.135Z,63.36
2023-11-01T15:10:22.616Z,63.63
2023-11-01T15:13:35.200Z,64.02
2023-11-01T15:16:42.721Z,64.79
2023-11-01T15:19:49.049Z,65.13
2023-11-01T15:22:52.505Z,65.31
2023-11-01T15:26:01.683Z,66.78
2023-11-01T15:29:31.308Z,66.79
2023-11-01T15:32:51.927Z,67.77
2023-11-01T15:36:00.206Z,67.43
2023-11-01T15:39:04.026Z,68.80
2023-11-01T15:42:09.729Z,69.05
2023-11-01T15:45:13.227Z,69.23
2023-11-01T15:48:23.092Z,69.65
2023-11-01T15:51:26.608Z,69.40
2023-11-01T15:54:30.250Z,69.94
2023-11-01T15:57:33.665Z,70.10
2023-11-01T16:00:37.084Z,70.33
2023-11-01T16:03:43.596Z,72.04
2023-11-01T16:06:47.110Z,72.06
2023-11-01T16:09:50.678Z,71.76
2023-11-01T16:12:54.217Z,72.23
2023-11-01T16:16:00.125Z,71.82
2023-11-01T16:19:11.593Z,72.30
2023-11-01T16:22:15.774Z,72.94
2023-11-01T16:25:20.465Z,72.75
2023-11-01T16:28:23.870Z,73.05
2023-11-01T16:31:36.989Z,73.13
2023-11-01T16:34:49.346Z,73.49
2023-11-01T16:37:52.828Z,73.90
2023-11-01T16:40:58.671Z,72.76
2023-11-01T16:44:04.716Z,74.28
2023-11-01T16:47:15.760Z,74.31
2023-11-01T16:50:23.499Z,74.53
2023-11-01T16:53:32.106Z,74.77
2023-11-01T16:56:37.390Z,74.96
2023-11-01T16:59:46.733Z,74.67
2023-11-01T17:02:51.118Z,75.64
2023-11-01T17:05:56.189Z,75.51
2023-11-01T17:09:02.640Z,75.91
2023-11-01T17:12:08.824Z,75.77
2023-11-01T17:15:14.980Z,75.92
2023-11-01T17:18:18.449Z,76.48
2023-11-01T17:21:23.439Z,76.85
2023-11-01T17:24:28.821Z,76.44
2023-11-01T17:27:36.845Z,76.78
2023-11-01T17:30:42.592Z,77.07
2023-11-01T17:33:58.334Z,76.37
2023-11-01T17:37:05.156Z,76.97
2023-11-01T17:40:12.408Z,77.06
2023-11-01T17:43:35.976Z,76.70
2023-11-01T17:46:39.432Z,76.95
2023-11-01T17:49:53.135Z,76.97
2023-11-01T17:53:00.987Z,77.06
2023-11-01T17:56:05.098Z,77.29
2023-11-01T17:59:08.590Z,77.28
2023-11-01T18:03:01.604Z,76.95
2023-11-01T18:06:21.196Z,77.60
2023-11-01T18:09:27.111Z,78.14
2023-11-01T18:12:31.944Z,77.05
2023-11-01T18:15:36.447Z,77.51
2023-11-01T18:18:47.557Z,76.99
2023-11-01T18:21:51.285Z,77.83
2023-11-01T18:24:56.686Z,77.14
2023-11-01T18:28:01.975Z,77.17
2023-11-01T18:31:05.802Z,77.51
2023-11-01T18:34:11.482Z,77.40
2023-11-01T18:37:14.980Z,77.63
2023-11-01T18:40:26.180Z,78.11
2023-11-01T18:43:29.491Z,78.28
2023-11-01T18:46:35.538Z,77.74
2023-11-01T18:49:59.686Z,77.03
2023-11-01T18:53:09.175Z,77.17
2023-11-01T18:56:15.432Z,77.47
2023-11-01T18:59:32.625Z,77.61
2023-11-01T19:03:02.354Z,77.47
2023-11-01T19:06:06.619Z,76.73
2023-11-01T19:09:12.617Z,76.52
2023-11-01T19:12:26.494Z,77.56
2023-11-01T19:16:02.597Z,78.58
2023-11-01T19:19:06.076Z,77.86
2023-11-01T19:22:09.593Z,78.79
2023-11-01T19:25:13.115Z,78.51
2023-11-01T19:28:18.028Z,78.83
2023-11-01T19:31:22.414Z,79.06
2023-11-01T19:34:27.602Z,80.00
2023-11-01T19:37:31.059Z,79.70
2023-11-01T19:40:34.463Z,79.87
2023-11-01T19:43:39.401Z,78.95
2023-11-01T19:46:44.318Z,78.95
2023-11-01T19:49:47.888Z,78.59
2023-11-01T19:52:51.537Z,79.34
2023-11-01T19:55:54.980Z,78.62
2023-11-01T19:59:00.383Z,78.41
2023-11-01T20:02:05.641Z,79.07
2023-11-01T20:05:10.346Z,79.16
2023-11-01T20:08:14.007Z,78.47
2023-11-01T20:11:17.356Z,78.13
2023-11-01T20:14:22.153Z,78.47
2023-11-01T20:17:26.235Z,78.58
2023-11-01T20:20:29.746Z,78.57
2023-11-01T20:23:33.282Z,78.16
2023-11-01T20:26:36.829Z,78.88
2023-11-01T20:29:42.393Z,78.15
2023-11-01T20:32:46.399Z,78.07
2023-11-01T20:35:49.899Z,77.95
2023-11-01T20:38:53.499Z,78.70
2023-11-01T20:41:56.869Z,78.76
2023-11-01T20:45:01.831Z,78.98
2023-11-01T20:48:06.111Z,79.78
2023-11-01T20:51:13.244Z,80.00
2023-11-01T20:54:16.650Z,79.81
2023-11-01T20:57:20.455Z,79.63
2023-11-01T21:00:25.950Z,78.59
2023-11-01T21:03:30.352Z,78.44
2023-11-01T21:06:33.734Z,79.07
2023-11-01T21:09:37.141Z,78.27
2023-11-01T21:12:42.606Z,78.93
2023-11-01T21:15:48.627Z,78.88
2023-11-01T21:18:52.156Z,79.06
2023-11-01T21:21:55.848Z,79.21
2023-11-01T21:24:59.298Z,79.54
2023-11-01T21:28:04.072Z,79.36
2023-11-01T21:31:12.368Z,79.26
2023-11-01T21:34:16.214Z,78.65
2023-11-01T21:37:20.129Z,78.45
2023-11-01T21:40:26.166Z,77.81
2023-11-01T21:43:29.824Z,77.77
2023-11-01T21:46:34.628Z,77.37
2023-11-01T21:49:38.718Z,77.87
2023-11-01T21:52:43.544Z,76.81
2023-11-01T21:55:55.157Z,76.96
2023-11-01T21:59:09.248Z,76.25
2023-11-01T22:02:19.611Z,76.22
2023-11-01T22:05:24.132Z,76.34
2023-11-01T22:09:06.623Z,76.24
2023-11-01T22:12:11.637Z,76.74
2023-11-01T22:15:19.628Z,76.35
2023-11-01T22:18:29.511Z,76.42
2023-11-01T22:21:36.885Z,76.44
2023-11-01T22:24:42.674Z,76.87
2023-11-01T22:27:49.819Z,76.21
2023-11-01T22:30:53.303Z,76.38
2023-11-01T22:33:58.186Z,77.29
2023-11-01T22:37:03.200Z,76.86
2023-11-01T22:40:08.988Z,77.57
2023-11-01T22:43:12.650Z,77.51
2023-11-01T22:46:16.061Z,77.98
2023-11-01T22:49:20.826Z,77.74
2023-11-01T22:52:24.564Z,77.28
2023-11-01T22:55:40.711Z,77.31
2023-11-01T22:58:45.730Z,77.64
2023-11-01T23:01:52.040Z,78.28
2023-11-01T23:04:56.970Z,77.79
2023-11-01T23:08:02.787Z,78.48
2023-11-01T23:11:07.016Z,78.27
2023-11-01T23:14:11.176Z,78.11
2023-11-01T23:17:14.799Z,77.92
2023-11-01T23:20:24.086Z,78.55
2023-11-01T23:23:31.813Z,78.49
2023-11-01T23:26:55.197Z,77.58
2023-11-01T23:29:59.487Z,77.56
2023-11-01T23:33:03.610Z,77.36
2023-11-01T23:36:13.996Z,77.80
2023-11-01T23:39:38.398Z,77.27
2023-11-01T23:42:41.895Z,77.61
2023-11-01T23:46:19.629Z,77.85
2023-11-01T23:49:40.285Z,77.50
2023-11-01T23:52:45.600Z,78.32
2023-11-01T23:55:55.689Z,78.15
2023-11-01T23:58:59.487Z,78.25
